Portada
METAR-TAF:

METAR-TAF

Aeroports :

Nimes, França

latitud: 43-45N, longitud: 004-25E, altitud: 94 m

Observació

L'informe es va fer fa 28 minuts, a les 13:30 UTC
Vent 11 kt del Nord
Temperatura 11°C
Humitat 50%
Pressió 1025 hPa
Visibilitat 10 km o més
sense núvols per sota de 1500 mi sense presència de cumulonimbus.

METAR: LFTW 181330Z AUTO 01011KT CAVOK 11/01 Q1025 NOSIG

Hora: 14:58 (13:58 UTC)

Pronòstic

L'informe es va fer fa 5 hores i 58 minuts, a les 08:00 UTC
Pronòstic vàlid del 18 a les 09 UTC al 19 a les 09 UTC
Vent 5 kt del Oest/Nord-Oest
Visibilitat 10 km o més
sense núvols per sota de 1500 mi sense presència de cumulonimbus.
Evolucionant progressivament
l' 18 a les 11 UTC al 18 a les 13 UTC
Vent 10 kt del Nord
Evolucionant progressivament
l' 18 a les 23 UTC al 19 a les 01 UTC
Vent 20 kt del Nord amb ràfegues de 30 kt

TAF: LFTW 180800Z 1809/1909 30005KT CAVOK BECMG 1811/1813 36010KT BECMG 1823/1901 36020G30KT

Observacions i pronòstics meteorològics de més de 4000 aeroports (METAR i TAF).

Les estacions disponibles són els punts grocs i vermells al mapa.

Posi el ratolí al punt desitjat per veure el nom de l'estació.

Feu clic per veure les observacions i els pronòstics meteorològics.

Per canviar el mapa: feu clic els botons verds amb una creu de color negre per apropar; al botó verd amb un guió per allunyar la imatge; o en les fletxes verdes per a mapes adjacents.


METAR-TAF: